sensor_id;sensor_type;location;lat;lon;timestamp;temperature;humidity
1413;DHT22;701;52.526;13.408;2022-09-16T00:00:42;13.30;30.50
1413;DHT22;701;52.526;13.408;2022-09-16T00:03:09;13.30;30.40
1413;DHT22;701;52.526;13.408;2022-09-16T00:05:40;13.20;30.30
1413;DHT22;701;52.526;13.408;2022-09-16T00:08:07;13.20;30.30
1413;DHT22;701;52.526;13.408;2022-09-16T00:10:32;13.20;30.20
1413;DHT22;701;52.526;13.408;2022-09-16T00:12:58;13.10;30.00
1413;DHT22;701;52.526;13.408;2022-09-16T00:15:24;13.10;30.10
1413;DHT22;701;52.526;13.408;2022-09-16T00:17:49;13.00;30.00
1413;DHT22;701;52.526;13.408;2022-09-16T00:20:15;13.00;30.10
1413;DHT22;701;52.526;13.408;2022-09-16T00:22:41;13.00;30.10
1413;DHT22;701;52.526;13.408;2022-09-16T00:25:06;12.90;30.10
1413;DHT22;701;52.526;13.408;2022-09-16T00:27:32;12.90;30.00
1413;DHT22;701;52.526;13.408;2022-09-16T00:29:58;12.90;30.00
1413;DHT22;701;52.526;13.408;2022-09-16T00:32:23;12.80;30.00
1413;DHT22;701;52.526;13.408;2022-09-16T00:34:50;12.80;30.00
1413;DHT22;701;52.526;13.408;2022-09-16T00:37:16;12.80;30.00
1413;DHT22;701;52.526;13.408;2022-09-16T00:39:41;12.70;30.10
1413;DHT22;701;52.526;13.408;2022-09-16T00:42:09;12.70;30.40
1413;DHT22;701;52.526;13.408;2022-09-16T00:47:35;12.60;30.60
1413;DHT22;701;52.526;13.408;2022-09-16T00:50:07;12.60;30.60
1413;DHT22;701;52.526;13.408;2022-09-16T00:52:34;12.60;30.60
1413;DHT22;701;52.526;13.408;2022-09-16T00:55:04;12.60;30.60
1413;DHT22;701;52.526;13.408;2022-09-16T00:57:31;12.50;30.70
1413;DHT22;701;52.526;13.408;2022-09-16T00:59:57;12.50;30.70
1413;DHT22;701;52.526;13.408;2022-09-16T01:02:24;12.50;30.80
1413;DHT22;701;52.526;13.408;2022-09-16T01:05:04;12.50;31.30
1413;DHT22;701;52.526;13.408;2022-09-16T01:07:39;12.40;31.50
1413;DHT22;701;52.526;13.408;2022-09-16T01:10:07;12.40;31.80
1413;DHT22;701;52.526;13.408;2022-09-16T01:12:33;12.40;31.90
1413;DHT22;701;52.526;13.408;2022-09-16T01:14:59;12.40;31.90
1413;DHT22;701;52.526;13.408;2022-09-16T01:17:49;12.40;32.20
1413;DHT22;701;52.526;13.408;2022-09-16T01:23:23;12.30;32.40
1413;DHT22;701;52.526;13.408;2022-09-16T01:31:54;12.30;33.20
1413;DHT22;701;52.526;13.408;2022-09-16T01:42:39;12.20;33.80
1413;DHT22;701;52.526;13.408;2022-09-16T01:45:22;12.20;34.30
1413;DHT22;701;52.526;13.408;2022-09-16T01:50:46;12.20;35.40
1413;DHT22;701;52.526;13.408;2022-09-16T01:53:37;12.10;34.90
1413;DHT22;701;52.526;13.408;2022-09-16T01:58:52;12.10;36.20
1413;DHT22;701;52.526;13.408;2022-09-16T02:01:25;12.10;36.30
1413;DHT22;701;52.526;13.408;2022-09-16T02:03:59;12.10;36.30
1413;DHT22;701;52.526;13.408;2022-09-16T02:06:27;12.10;36.40
1413;DHT22;701;52.526;13.408;2022-09-16T02:09:08;12.10;36.40
1413;DHT22;701;52.526;13.408;2022-09-16T02:11:36;12.00;36.80
1413;DHT22;701;52.526;13.408;2022-09-16T02:14:08;12.10;36.90
1413;DHT22;701;52.526;13.408;2022-09-16T02:17:21;12.00;37.40
1413;DHT22;701;52.526;13.408;2022-09-16T02:19:26;12.00;37.40
1413;DHT22;701;52.526;13.408;2022-09-16T02:21:55;12.00;37.40
1413;DHT22;701;52.526;13.408;2022-09-16T02:24:25;12.00;37.40
1413;DHT22;701;52.526;13.408;2022-09-16T02:27:01;12.00;37.60
1413;DHT22;701;52.526;13.408;2022-09-16T02:29:34;12.00;38.20
1413;DHT22;701;52.526;13.408;2022-09-16T02:32:05;12.00;37.80
1413;DHT22;701;52.526;13.408;2022-09-16T02:34:36;12.00;38.30
1413;DHT22;701;52.526;13.408;2022-09-16T02:37:17;11.90;38.50
1413;DHT22;701;52.526;13.408;2022-09-16T02:39:45;11.90;38.80
1413;DHT22;701;52.526;13.408;2022-09-16T02:42:12;11.90;39.00
1413;DHT22;701;52.526;13.408;2022-09-16T02:44:38;11.90;39.60
1413;DHT22;701;52.526;13.408;2022-09-16T02:47:11;11.90;40.10
1413;DHT22;701;52.526;13.408;2022-09-16T02:50:00;11.90;40.20
1413;DHT22;701;52.526;13.408;2022-09-16T02:58:09;11.90;40.70
1413;DHT22;701;52.526;13.408;2022-09-16T03:00:39;11.90;40.50
1413;DHT22;701;52.526;13.408;2022-09-16T03:03:06;11.90;40.60
1413;DHT22;701;52.526;13.408;2022-09-16T03:05:32;11.90;40.50
1413;DHT22;701;52.526;13.408;2022-09-16T03:07:59;11.90;40.80
1413;DHT22;701;52.526;13.408;2022-09-16T03:10:35;11.90;41.00
1413;DHT22;701;52.526;13.408;2022-09-16T03:13:46;11.90;40.90
1413;DHT22;701;52.526;13.408;2022-09-16T03:16:09;11.90;41.10
1413;DHT22;701;52.526;13.408;2022-09-16T03:24:22;11.90;41.30
1413;DHT22;701;52.526;13.408;2022-09-16T03:27:24;11.90;41.30
1413;DHT22;701;52.526;13.408;2022-09-16T03:30:05;12.00;41.80
1413;DHT22;701;52.526;13.408;2022-09-16T03:32:35;12.00;41.80
1413;DHT22;701;52.526;13.408;2022-09-16T03:37:53;12.00;41.80
1413;DHT22;701;52.526;13.408;2022-09-16T03:40:20;12.00;41.50
1413;DHT22;701;52.526;13.408;2022-09-16T03:42:46;12.00;41.50
1413;DHT22;701;52.526;13.408;2022-09-16T03:45:15;12.00;41.60
1413;DHT22;701;52.526;13.408;2022-09-16T03:47:43;12.00;41.80
1413;DHT22;701;52.526;13.408;2022-09-16T03:50:09;12.00;41.70
1413;DHT22;701;52.526;13.408;2022-09-16T03:52:34;12.00;41.80
1413;DHT22;701;52.526;13.408;2022-09-16T03:55:00;12.00;41.80
1413;DHT22;701;52.526;13.408;2022-09-16T03:57:26;12.00;41.80
1413;DHT22;701;52.526;13.408;2022-09-16T03:59:52;12.00;41.80
1413;DHT22;701;52.526;13.408;2022-09-16T04:02:18;12.10;41.90
1413;DHT22;701;52.526;13.408;2022-09-16T04:04:44;12.10;41.90
1413;DHT22;701;52.526;13.408;2022-09-16T04:07:10;12.20;41.90
1413;DHT22;701;52.526;13.408;2022-09-16T04:09:35;12.20;41.90
1413;DHT22;701;52.526;13.408;2022-09-16T04:12:02;12.30;41.60
1413;DHT22;701;52.526;13.408;2022-09-16T04:14:28;12.30;41.20
1413;DHT22;701;52.526;13.408;2022-09-16T04:16:54;12.30;40.80
1413;DHT22;701;52.526;13.408;2022-09-16T04:19:19;12.30;40.60
1413;DHT22;701;52.526;13.408;2022-09-16T04:21:45;12.30;40.30
1413;DHT22;701;52.526;13.408;2022-09-16T04:24:11;12.30;40.20
1413;DHT22;701;52.526;13.408;2022-09-16T04:26:37;12.30;40.20
1413;DHT22;701;52.526;13.408;2022-09-16T04:29:03;12.30;40.20
1413;DHT22;701;52.526;13.408;2022-09-16T04:31:28;12.30;40.20
1413;DHT22;701;52.526;13.408;2022-09-16T04:33:54;12.30;40.30
1413;DHT22;701;52.526;13.408;2022-09-16T04:36:20;12.30;40.40
1413;DHT22;701;52.526;13.408;2022-09-16T04:38:46;12.40;40.40
1413;DHT22;701;52.526;13.408;2022-09-16T04:41:23;12.40;40.20
1413;DHT22;701;52.526;13.408;2022-09-16T04:43:51;12.40;40.00
1413;DHT22;701;52.526;13.408;2022-09-16T04:46:17;12.40;39.70
1413;DHT22;701;52.526;13.408;2022-09-16T04:48:46;12.40;39.50
1413;DHT22;701;52.526;13.408;2022-09-16T04:51:13;12.40;39.50
1413;DHT22;701;52.526;13.408;2022-09-16T04:53:39;12.30;39.40
1413;DHT22;701;52.526;13.408;2022-09-16T04:56:07;12.30;39.30
1413;DHT22;701;52.526;13.408;2022-09-16T04:58:34;12.30;39.50
1413;DHT22;701;52.526;13.408;2022-09-16T05:01:05;12.30;39.50
1413;DHT22;701;52.526;13.408;2022-09-16T05:03:31;12.30;39.50
1413;DHT22;701;52.526;13.408;2022-09-16T05:06:12;12.30;39.40
1413;DHT22;701;52.526;13.408;2022-09-16T05:08:38;12.30;39.30
1413;DHT22;701;52.526;13.408;2022-09-16T05:11:09;12.30;39.20
1413;DHT22;701;52.526;13.408;2022-09-16T05:13:36;12.30;39.20
1413;DHT22;701;52.526;13.408;2022-09-16T05:16:10;12.30;39.30
1413;DHT22;701;52.526;13.408;2022-09-16T05:18:37;12.30;39.20
1413;DHT22;701;52.526;13.408;2022-09-16T05:21:05;12.40;39.00
1413;DHT22;701;52.526;13.408;2022-09-16T05:23:31;12.40;38.80
1413;DHT22;701;52.526;13.408;2022-09-16T05:26:06;12.40;38.70
1413;DHT22;701;52.526;13.408;2022-09-16T05:28:33;12.40;38.70
1413;DHT22;701;52.526;13.408;2022-09-16T05:31:20;12.50;38.50
1413;DHT22;701;52.526;13.408;2022-09-16T05:36:19;12.60;38.10
1413;DHT22;701;52.526;13.408;2022-09-16T05:38:45;12.70;38.00
1413;DHT22;701;52.526;13.408;2022-09-16T05:41:11;12.80;37.80
1413;DHT22;701;52.526;13.408;2022-09-16T05:43:37;12.90;37.30
1413;DHT22;701;52.526;13.408;2022-09-16T05:46:04;13.00;36.90
1413;DHT22;701;52.526;13.408;2022-09-16T05:48:31;13.10;36.60
1413;DHT22;701;52.526;13.408;2022-09-16T05:51:05;13.20;35.70
1413;DHT22;701;52.526;13.408;2022-09-16T05:53:33;13.30;35.20
1413;DHT22;701;52.526;13.408;2022-09-16T05:56:04;13.40;34.80
1413;DHT22;701;52.526;13.408;2022-09-16T05:58:31;13.50;34.30
1413;DHT22;701;52.526;13.408;2022-09-16T06:03:32;13.70;33.40
1413;DHT22;701;52.526;13.408;2022-09-16T06:06:23;13.90;33.00
1413;DHT22;701;52.526;13.408;2022-09-16T06:08:51;13.90;32.30
1413;DHT22;701;52.526;13.408;2022-09-16T06:11:17;14.00;31.70
1413;DHT22;701;52.526;13.408;2022-09-16T06:13:42;14.10;31.70
1413;DHT22;701;52.526;13.408;2022-09-16T06:16:09;14.20;31.10
1413;DHT22;701;52.526;13.408;2022-09-16T06:18:35;14.40;30.60
1413;DHT22;701;52.526;13.408;2022-09-16T06:21:04;14.50;29.60
1413;DHT22;701;52.526;13.408;2022-09-16T06:23:30;14.60;29.70
1413;DHT22;701;52.526;13.408;2022-09-16T06:26:04;14.70;29.30
1413;DHT22;701;52.526;13.408;2022-09-16T06:28:31;14.80;28.40
1413;DHT22;701;52.526;13.408;2022-09-16T06:31:11;14.90;27.90
1413;DHT22;701;52.526;13.408;2022-09-16T06:33:38;15.00;27.40
1413;DHT22;701;52.526;13.408;2022-09-16T06:38:29;15.10;27.10
1413;DHT22;701;52.526;13.408;2022-09-16T06:41:04;15.00;27.00
1413;DHT22;701;52.526;13.408;2022-09-16T06:43:30;15.00;26.90
1413;DHT22;701;52.526;13.408;2022-09-16T06:46:01;15.10;26.60
1413;DHT22;701;52.526;13.408;2022-09-16T06:48:27;15.20;26.10
1413;DHT22;701;52.526;13.408;2022-09-16T06:51:01;15.20;25.40
1413;DHT22;701;52.526;13.408;2022-09-16T06:53:27;15.30;25.50
1413;DHT22;701;52.526;13.408;2022-09-16T06:55:53;15.30;25.10
1413;DHT22;701;52.526;13.408;2022-09-16T06:58:19;15.30;25.00
1413;DHT22;701;52.526;13.408;2022-09-16T07:00:46;15.30;24.50
1413;DHT22;701;52.526;13.408;2022-09-16T07:03:12;15.40;24.50
1413;DHT22;701;52.526;13.408;2022-09-16T07:05:38;15.60;24.70
1413;DHT22;701;52.526;13.408;2022-09-16T07:08:04;15.80;24.00
1413;DHT22;701;52.526;13.408;2022-09-16T07:10:30;16.00;23.90
1413;DHT22;701;52.526;13.408;2022-09-16T07:12:55;16.20;23.00
1413;DHT22;701;52.526;13.408;2022-09-16T07:15:21;16.30;22.60
1413;DHT22;701;52.526;13.408;2022-09-16T07:17:53;16.30;21.80
1413;DHT22;701;52.526;13.408;2022-09-16T07:20:19;16.40;21.50
1413;DHT22;701;52.526;13.408;2022-09-16T07:22:45;16.50;21.60
1413;DHT22;701;52.526;13.408;2022-09-16T07:25:15;16.60;21.30
1413;DHT22;701;52.526;13.408;2022-09-16T07:27:41;16.60;21.00
1413;DHT22;701;52.526;13.408;2022-09-16T07:30:07;16.80;21.10
1413;DHT22;701;52.526;13.408;2022-09-16T07:32:33;16.90;20.60
1413;DHT22;701;52.526;13.408;2022-09-16T07:34:59;16.80;20.30
1413;DHT22;701;52.526;13.408;2022-09-16T07:37:24;16.80;20.00
1413;DHT22;701;52.526;13.408;2022-09-16T07:39:50;16.70;19.50
1413;DHT22;701;52.526;13.408;2022-09-16T07:42:17;16.70;19.50
1413;DHT22;701;52.526;13.408;2022-09-16T07:44:43;16.80;19.50
1413;DHT22;701;52.526;13.408;2022-09-16T07:47:10;17.00;19.40
1413;DHT22;701;52.526;13.408;2022-09-16T07:49:36;17.10;19.20
1413;DHT22;701;52.526;13.408;2022-09-16T07:52:02;17.10;18.30
1413;DHT22;701;52.526;13.408;2022-09-16T07:54:29;17.00;18.10
1413;DHT22;701;52.526;13.408;2022-09-16T07:56:56;17.00;18.30
1413;DHT22;701;52.526;13.408;2022-09-16T07:59:23;17.10;18.20
1413;DHT22;701;52.526;13.408;2022-09-16T08:01:49;17.10;18.10
1413;DHT22;701;52.526;13.408;2022-09-16T08:04:16;17.20;18.00
1413;DHT22;701;52.526;13.408;2022-09-16T08:06:41;17.40;17.60
1413;DHT22;701;52.526;13.408;2022-09-16T08:09:07;17.60;17.20
1413;DHT22;701;52.526;13.408;2022-09-16T08:11:33;17.80;17.10
1413;DHT22;701;52.526;13.408;2022-09-16T08:14:00;18.00;16.80
1413;DHT22;701;52.526;13.408;2022-09-16T08:16:27;18.20;16.40
1413;DHT22;701;52.526;13.408;2022-09-16T08:18:56;18.40;15.90
1413;DHT22;701;52.526;13.408;2022-09-16T08:21:26;18.60;15.20
1413;DHT22;701;52.526;13.408;2022-09-16T08:23:53;18.70;15.30
1413;DHT22;701;52.526;13.408;2022-09-16T08:26:21;18.80;14.50
1413;DHT22;701;52.526;13.408;2022-09-16T08:28:48;19.00;14.50
1413;DHT22;701;52.526;13.408;2022-09-16T08:31:16;19.30;13.90
1413;DHT22;701;52.526;13.408;2022-09-16T08:33:44;19.50;13.30
1413;DHT22;701;52.526;13.408;2022-09-16T08:36:20;19.80;13.00
1413;DHT22;701;52.526;13.408;2022-09-16T08:38:48;20.00;12.30
1413;DHT22;701;52.526;13.408;2022-09-16T08:46:53;20.50;10.70
1413;DHT22;701;52.526;13.408;2022-09-16T08:49:45;20.50;9.70
1413;DHT22;701;52.526;13.408;2022-09-16T08:54:52;21.40;7.80
1413;DHT22;701;52.526;13.408;2022-09-16T08:57:22;21.90;8.00
1413;DHT22;701;52.526;13.408;2022-09-16T08:59:54;22.80;7.40
1413;DHT22;701;52.526;13.408;2022-09-16T09:08:10;24.70;2.50
1413;DHT22;701;52.526;13.408;2022-09-16T09:11:08;25.10;1.80
1413;DHT22;701;52.526;13.408;2022-09-16T09:13:49;25.30;1.00
1413;DHT22;701;52.526;13.408;2022-09-16T09:19:47;25.20;1.00
1413;DHT22;701;52.526;13.408;2022-09-16T09:25:22;25.40;1.00
1413;DHT22;701;52.526;13.408;2022-09-16T09:28:10;25.80;1.00
1413;DHT22;701;52.526;13.408;2022-09-16T09:30:43;26.20;1.00
1413;DHT22;701;52.526;13.408;2022-09-16T09:41:29;27.50;1.00
1413;DHT22;701;52.526;13.408;2022-09-16T09:46:40;28.00;1.00
1413;DHT22;701;52.526;13.408;2022-09-16T09:49:19;27.50;1.00
1413;DHT22;701;52.526;13.408;2022-09-16T09:51:55;26.70;1.00
1413;DHT22;701;52.526;13.408;2022-09-16T09:57:15;25.10;1.00
1413;DHT22;701;52.526;13.408;2022-09-16T10:02:18;24.80;1.00
1413;DHT22;701;52.526;13.408;2022-09-16T10:04:44;24.70;1.00
1413;DHT22;701;52.526;13.408;2022-09-16T10:07:13;24.20;1.00
1413;DHT22;701;52.526;13.408;2022-09-16T10:10:01;23.80;1.00
1413;DHT22;701;52.526;13.408;2022-09-16T10:12:32;23.30;1.00
1413;DHT22;701;52.526;13.408;2022-09-16T10:14:59;23.10;1.00
1413;DHT22;701;52.526;13.408;2022-09-16T10:17:27;23.00;1.00
1413;DHT22;701;52.526;13.408;2022-09-16T10:19:58;23.20;1.00
1413;DHT22;701;52.526;13.408;2022-09-16T10:22:28;23.50;1.00
1413;DHT22;701;52.526;13.408;2022-09-16T10:25:17;23.90;1.00
1413;DHT22;701;52.526;13.408;2022-09-16T10:27:57;24.40;1.00
1413;DHT22;701;52.526;13.408;2022-09-16T10:30:30;24.70;1.00
1413;DHT22;701;52.526;13.408;2022-09-16T10:33:20;24.70;1.00
1413;DHT22;701;52.526;13.408;2022-09-16T10:36:07;24.40;1.00
1413;DHT22;701;52.526;13.408;2022-09-16T10:38:39;24.00;1.00
1413;DHT22;701;52.526;13.408;2022-09-16T10:41:08;23.70;1.00
1413;DHT22;701;52.526;13.408;2022-09-16T10:43:36;23.40;1.00
1413;DHT22;701;52.526;13.408;2022-09-16T10:46:04;23.20;1.00
1413;DHT22;701;52.526;13.408;2022-09-16T10:48:30;23.10;1.00
1413;DHT22;701;52.526;13.408;2022-09-16T10:53:34;22.80;1.00
1413;DHT22;701;52.526;13.408;2022-09-16T10:56:06;22.80;1.00
1413;DHT22;701;52.526;13.408;2022-09-16T10:58:32;22.80;1.00
1413;DHT22;701;52.526;13.408;2022-09-16T11:01:31;22.90;1.00
1413;DHT22;701;52.526;13.408;2022-09-16T11:04:20;22.90;1.00
1413;DHT22;701;52.526;13.408;2022-09-16T11:09:58;23.10;1.00
1413;DHT22;701;52.526;13.408;2022-09-16T11:29:16;22.50;1.00
1413;DHT22;701;52.526;13.408;2022-09-16T11:31:52;22.10;1.00
1413;DHT22;701;52.526;13.408;2022-09-16T11:40:48;20.90;1.00
1413;DHT22;701;52.526;13.408;2022-09-16T11:46:10;20.40;1.00
1413;DHT22;701;52.526;13.408;2022-09-16T11:57:17;19.50;1.00
1413;DHT22;701;52.526;13.408;2022-09-16T12:04:56;19.40;1.00
1413;DHT22;701;52.526;13.408;2022-09-16T12:07:35;19.30;1.00
1413;DHT22;701;52.526;13.408;2022-09-16T12:12:51;19.20;1.00
1413;DHT22;701;52.526;13.408;2022-09-16T12:15:24;19.10;1.00
1413;DHT22;701;52.526;13.408;2022-09-16T12:17:57;19.10;1.00
1413;DHT22;701;52.526;13.408;2022-09-16T12:20:28;19.00;1.00
1413;DHT22;701;52.526;13.408;2022-09-16T12:26:12;18.90;1.00
1413;DHT22;701;52.526;13.408;2022-09-16T12:31:54;18.80;1.00
1413;DHT22;701;52.526;13.408;2022-09-16T12:37:35;19.20;1.00
1413;DHT22;701;52.526;13.408;2022-09-16T12:40:11;19.40;1.00
1413;DHT22;701;52.526;13.408;2022-09-16T12:42:50;19.50;1.00
1413;DHT22;701;52.526;13.408;2022-09-16T12:45:58;19.60;1.00
1413;DHT22;701;52.526;13.408;2022-09-16T12:56:39;19.10;1.00
1413;DHT22;701;52.526;13.408;2022-09-16T13:01:48;19.20;1.00
1413;DHT22;701;52.526;13.408;2022-09-16T13:04:27;19.30;1.00
1413;DHT22;701;52.526;13.408;2022-09-16T13:09:38;19.40;1.00
1413;DHT22;701;52.526;13.408;2022-09-16T13:12:19;19.40;1.00
1413;DHT22;701;52.526;13.408;2022-09-16T13:14:49;19.50;1.00
1413;DHT22;701;52.526;13.408;2022-09-16T13:17:35;19.50;1.00
1413;DHT22;701;52.526;13.408;2022-09-16T13:20:26;19.60;1.00
1413;DHT22;701;52.526;13.408;2022-09-16T13:23:23;19.70;1.00
1413;DHT22;701;52.526;13.408;2022-09-16T13:25:57;19.80;1.00
1413;DHT22;701;52.526;13.408;2022-09-16T13:33:45;20.20;1.00
1413;DHT22;701;52.526;13.408;2022-09-16T13:39:00;20.50;1.00
1413;DHT22;701;52.526;13.408;2022-09-16T13:41:44;20.50;1.00
1413;DHT22;701;52.526;13.408;2022-09-16T13:49:49;20.80;1.00
1413;DHT22;701;52.526;13.408;2022-09-16T13:52:31;21.00;1.00
1413;DHT22;701;52.526;13.408;2022-09-16T13:54:59;21.20;1.00
1413;DHT22;701;52.526;13.408;2022-09-16T14:00:50;21.10;1.00
1413;DHT22;701;52.526;13.408;2022-09-16T14:03:49;20.90;1.00
1413;DHT22;701;52.526;13.408;2022-09-16T14:06:46;20.80;1.00
1413;DHT22;701;52.526;13.408;2022-09-16T14:14:25;20.70;1.00
1413;DHT22;701;52.526;13.408;2022-09-16T14:16:52;20.70;1.00
1413;DHT22;701;52.526;13.408;2022-09-16T14:19:30;20.70;1.00
1413;DHT22;701;52.526;13.408;2022-09-16T14:22:23;20.70;1.00
1413;DHT22;701;52.526;13.408;2022-09-16T14:24:52;20.90;1.00
1413;DHT22;701;52.526;13.408;2022-09-16T14:27:30;21.10;1.00
1413;DHT22;701;52.526;13.408;2022-09-16T14:30:14;21.40;1.00
1413;DHT22;701;52.526;13.408;2022-09-16T14:32:41;21.60;1.00
1413;DHT22;701;52.526;13.408;2022-09-16T14:35:16;21.70;1.00
1413;DHT22;701;52.526;13.408;2022-09-16T14:37:45;21.60;1.00
1413;DHT22;701;52.526;13.408;2022-09-16T14:40:14;21.50;1.00
1413;DHT22;701;52.526;13.408;2022-09-16T14:42:49;21.60;1.00
1413;DHT22;701;52.526;13.408;2022-09-16T14:45:16;21.70;1.00
1413;DHT22;701;52.526;13.408;2022-09-16T14:47:43;21.80;1.00
1413;DHT22;701;52.526;13.408;2022-09-16T14:50:20;21.90;1.00
1413;DHT22;701;52.526;13.408;2022-09-16T14:52:55;21.90;1.00
1413;DHT22;701;52.526;13.408;2022-09-16T14:55:23;21.90;1.00
1413;DHT22;701;52.526;13.408;2022-09-16T14:57:50;21.70;1.00
1413;DHT22;701;52.526;13.408;2022-09-16T15:00:16;21.50;1.00
1413;DHT22;701;52.526;13.408;2022-09-16T15:02:50;21.40;1.00
1413;DHT22;701;52.526;13.408;2022-09-16T15:05:32;21.50;1.00
1413;DHT22;701;52.526;13.408;2022-09-16T15:08:14;21.50;1.00
1413;DHT22;701;52.526;13.408;2022-09-16T15:10:44;21.30;1.00
1413;DHT22;701;52.526;13.408;2022-09-16T15:13:13;21.00;1.00
1413;DHT22;701;52.526;13.408;2022-09-16T15:15:57;20.80;1.00
1413;DHT22;701;52.526;13.408;2022-09-16T15:18:27;20.60;1.00
1413;DHT22;701;52.526;13.408;2022-09-16T15:21:18;20.50;1.00
1413;DHT22;701;52.526;13.408;2022-09-16T15:23:50;20.30;1.00
1413;DHT22;701;52.526;13.408;2022-09-16T15:26:22;20.20;1.00
1413;DHT22;701;52.526;13.408;2022-09-16T15:31:27;20.10;1.00
1413;DHT22;701;52.526;13.408;2022-09-16T15:33:53;20.00;1.00
1413;DHT22;701;52.526;13.408;2022-09-16T15:36:39;20.00;1.00
1413;DHT22;701;52.526;13.408;2022-09-16T15:41:46;19.90;1.00
1413;DHT22;701;52.526;13.408;2022-09-16T15:44:24;19.80;1.00
1413;DHT22;701;52.526;13.408;2022-09-16T15:46:51;19.80;1.00
1413;DHT22;701;52.526;13.408;2022-09-16T15:49:17;19.80;1.00
1413;DHT22;701;52.526;13.408;2022-09-16T15:51:46;19.80;1.00
1413;DHT22;701;52.526;13.408;2022-09-16T15:54:27;19.70;1.00
1413;DHT22;701;52.526;13.408;2022-09-16T15:59:36;19.60;1.00
1413;DHT22;701;52.526;13.408;2022-09-16T16:02:17;19.50;1.00
1413;DHT22;701;52.526;13.408;2022-09-16T16:04:44;19.40;1.00
1413;DHT22;701;52.526;13.408;2022-09-16T16:07:10;19.20;1.00
1413;DHT22;701;52.526;13.408;2022-09-16T16:09:38;19.10;1.00
1413;DHT22;701;52.526;13.408;2022-09-16T16:14:35;18.70;1.00
1413;DHT22;701;52.526;13.408;2022-09-16T16:17:10;18.60;1.00
1413;DHT22;701;52.526;13.408;2022-09-16T16:19:36;18.40;1.00
1413;DHT22;701;52.526;13.408;2022-09-16T16:22:04;18.30;1.00
1413;DHT22;701;52.526;13.408;2022-09-16T16:24:31;18.20;1.00
1413;DHT22;701;52.526;13.408;2022-09-16T16:26:58;18.10;1.00
1413;DHT22;701;52.526;13.408;2022-09-16T16:29:24;18.10;1.00
1413;DHT22;701;52.526;13.408;2022-09-16T16:32:01;18.00;1.00
1413;DHT22;701;52.526;13.408;2022-09-16T16:34:38;18.00;1.00
1413;DHT22;701;52.526;13.408;2022-09-16T16:37:04;17.90;1.00
1413;DHT22;701;52.526;13.408;2022-09-16T16:39:32;17.90;1.00
1413;DHT22;701;52.526;13.408;2022-09-16T16:41:57;17.90;1.00
1413;DHT22;701;52.526;13.408;2022-09-16T16:44:24;17.80;1.00
1413;DHT22;701;52.526;13.408;2022-09-16T16:46:54;17.70;1.00
1413;DHT22;701;52.526;13.408;2022-09-16T16:49:20;17.70;1.00
1413;DHT22;701;52.526;13.408;2022-09-16T16:51:50;17.70;1.00
1413;DHT22;701;52.526;13.408;2022-09-16T16:54:17;17.70;1.00
1413;DHT22;701;52.526;13.408;2022-09-16T16:56:44;17.70;1.00
1413;DHT22;701;52.526;13.408;2022-09-16T16:59:10;17.60;1.00
1413;DHT22;701;52.526;13.408;2022-09-16T17:01:36;17.50;1.00
1413;DHT22;701;52.526;13.408;2022-09-16T17:04:02;17.40;1.00
1413;DHT22;701;52.526;13.408;2022-09-16T17:06:29;17.30;1.00
1413;DHT22;701;52.526;13.408;2022-09-16T17:08:55;17.20;1.00
1413;DHT22;701;52.526;13.408;2022-09-16T17:11:22;17.10;1.20
1413;DHT22;701;52.526;13.408;2022-09-16T17:13:50;17.00;1.30
1413;DHT22;701;52.526;13.408;2022-09-16T17:16:21;16.90;1.80
1413;DHT22;701;52.526;13.408;2022-09-16T17:18:47;16.70;2.00
1413;DHT22;701;52.526;13.408;2022-09-16T17:21:19;16.60;2.10
1413;DHT22;701;52.526;13.408;2022-09-16T17:23:46;16.50;2.30
1413;DHT22;701;52.526;13.408;2022-09-16T17:26:12;16.40;2.20
1413;DHT22;701;52.526;13.408;2022-09-16T17:28:42;16.30;2.10
1413;DHT22;701;52.526;13.408;2022-09-16T17:31:21;16.20;2.00
1413;DHT22;701;52.526;13.408;2022-09-16T17:33:54;16.10;2.30
1413;DHT22;701;52.526;13.408;2022-09-16T17:36:21;16.10;2.70
1413;DHT22;701;52.526;13.408;2022-09-16T17:39:02;16.00;2.90
1413;DHT22;701;52.526;13.408;2022-09-16T17:41:28;15.90;3.20
1413;DHT22;701;52.526;13.408;2022-09-16T17:43:56;15.80;3.30
1413;DHT22;701;52.526;13.408;2022-09-16T17:46:23;15.70;3.60
1413;DHT22;701;52.526;13.408;2022-09-16T17:48:52;15.70;3.80
1413;DHT22;701;52.526;13.408;2022-09-16T17:51:19;15.60;4.20
1413;DHT22;701;52.526;13.408;2022-09-16T17:53:45;15.50;4.30
1413;DHT22;701;52.526;13.408;2022-09-16T17:56:13;15.50;4.80
1413;DHT22;701;52.526;13.408;2022-09-16T17:58:41;15.40;5.40
1413;DHT22;701;52.526;13.408;2022-09-16T18:01:09;15.30;5.60
1413;DHT22;701;52.526;13.408;2022-09-16T18:03:36;15.30;6.10
1413;DHT22;701;52.526;13.408;2022-09-16T18:06:22;15.30;6.40
1413;DHT22;701;52.526;13.408;2022-09-16T18:08:49;15.20;6.80
1413;DHT22;701;52.526;13.408;2022-09-16T18:11:16;15.20;6.60
1413;DHT22;701;52.526;13.408;2022-09-16T18:13:43;15.10;6.80
1413;DHT22;701;52.526;13.408;2022-09-16T18:16:15;15.10;7.00
1413;DHT22;701;52.526;13.408;2022-09-16T18:18:42;15.10;7.10
1413;DHT22;701;52.526;13.408;2022-09-16T18:21:11;15.10;7.60
1413;DHT22;701;52.526;13.408;2022-09-16T18:23:39;15.10;7.80
1413;DHT22;701;52.526;13.408;2022-09-16T18:26:09;15.20;7.90
1413;DHT22;701;52.526;13.408;2022-09-16T18:28:37;15.20;7.90
1413;DHT22;701;52.526;13.408;2022-09-16T18:31:05;15.30;7.90
1413;DHT22;701;52.526;13.408;2022-09-16T18:33:31;15.30;8.20
1413;DHT22;701;52.526;13.408;2022-09-16T18:36:06;15.30;7.90
1413;DHT22;701;52.526;13.408;2022-09-16T18:38:33;15.30;8.20
1413;DHT22;701;52.526;13.408;2022-09-16T18:41:03;15.30;8.80
1413;DHT22;701;52.526;13.408;2022-09-16T18:43:29;15.20;8.30
1413;DHT22;701;52.526;13.408;2022-09-16T18:45:55;15.20;8.40
1413;DHT22;701;52.526;13.408;2022-09-16T18:48:21;15.20;8.60
1413;DHT22;701;52.526;13.408;2022-09-16T18:50:48;15.20;8.60
1413;DHT22;701;52.526;13.408;2022-09-16T18:53:14;15.20;8.80
1413;DHT22;701;52.526;13.408;2022-09-16T18:55:40;15.20;8.70
1413;DHT22;701;52.526;13.408;2022-09-16T18:58:06;15.20;8.80
1413;DHT22;701;52.526;13.408;2022-09-16T19:00:33;15.20;8.90
1413;DHT22;701;52.526;13.408;2022-09-16T19:02:59;15.20;8.90
1413;DHT22;701;52.526;13.408;2022-09-16T19:05:25;15.20;8.90
1413;DHT22;701;52.526;13.408;2022-09-16T19:07:51;15.20;8.80
1413;DHT22;701;52.526;13.408;2022-09-16T19:10:17;15.20;9.20
1413;DHT22;701;52.526;13.408;2022-09-16T19:12:42;15.20;9.10
1413;DHT22;701;52.526;13.408;2022-09-16T19:15:09;15.30;9.20
1413;DHT22;701;52.526;13.408;2022-09-16T19:17:35;15.30;9.20
1413;DHT22;701;52.526;13.408;2022-09-16T19:20:01;15.30;9.20
1413;DHT22;701;52.526;13.408;2022-09-16T19:22:28;15.40;9.30
1413;DHT22;701;52.526;13.408;2022-09-16T19:24:53;15.40;9.30
1413;DHT22;701;52.526;13.408;2022-09-16T19:27:19;15.40;9.30
1413;DHT22;701;52.526;13.408;2022-09-16T19:29:45;15.50;9.30
1413;DHT22;701;52.526;13.408;2022-09-16T19:32:11;15.40;9.30
1413;DHT22;701;52.526;13.408;2022-09-16T19:34:36;15.40;9.50
1413;DHT22;701;52.526;13.408;2022-09-16T19:37:02;15.40;10.00
1413;DHT22;701;52.526;13.408;2022-09-16T19:39:28;15.40;10.60